createdAt,value
2023-05-15T00:00:10.735Z,72.30
2023-05-15T00:02:44.686Z,72.30
2023-05-15T00:05:14.020Z,72.30
2023-05-15T00:07:41.898Z,72.40
2023-05-15T00:10:09.467Z,72.60
2023-05-15T00:12:36.997Z,72.40
2023-05-15T00:15:04.715Z,72.40
2023-05-15T00:17:32.098Z,72.30
2023-05-15T00:20:00.412Z,72.40
2023-05-15T00:22:27.870Z,72.40
2023-05-15T00:24:55.428Z,72.50
2023-05-15T00:27:22.735Z,72.80
2023-05-15T00:29:49.962Z,72.70
2023-05-15T00:32:17.298Z,72.80
2023-05-15T00:34:45.174Z,72.80
2023-05-15T00:37:12.533Z,72.80
2023-05-15T00:39:40.192Z,72.60
2023-05-15T00:42:08.436Z,72.60
2023-05-15T00:44:37.170Z,72.80
2023-05-15T00:47:05.661Z,72.80
2023-05-15T00:49:35.477Z,72.70
2023-05-15T00:52:03.758Z,72.80
2023-05-15T00:54:31.216Z,72.90
2023-05-15T00:56:59.680Z,72.80
2023-05-15T00:59:29.917Z,72.90
2023-05-15T01:01:57.466Z,73.00
2023-05-15T01:04:25.090Z,73.10
2023-05-15T01:06:55.271Z,73.10
2023-05-15T01:09:27.436Z,73.00
2023-05-15T01:11:57.384Z,73.00
2023-05-15T01:14:24.668Z,72.90
2023-05-15T01:16:52.057Z,72.90
2023-05-15T01:19:19.829Z,72.90
2023-05-15T01:21:53.308Z,72.90
2023-05-15T01:24:48.707Z,73.00
2023-05-15T01:27:36.803Z,73.20
2023-05-15T01:30:32.428Z,73.30
2023-05-15T01:33:17.280Z,73.20
2023-05-15T01:35:50.522Z,72.80
2023-05-15T01:38:27.630Z,72.90
2023-05-15T01:41:28.356Z,73.00
2023-05-15T01:44:17.884Z,73.20
2023-05-15T01:46:55.554Z,73.10
2023-05-15T01:49:27.082Z,73.20
2023-05-15T01:52:12.834Z,73.30
2023-05-15T01:54:40.765Z,73.40
2023-05-15T01:57:09.670Z,73.20
2023-05-15T01:59:38.527Z,73.20
2023-05-15T02:02:07.104Z,73.90
2023-05-15T02:04:35.464Z,73.10
2023-05-15T02:07:05.107Z,73.00
2023-05-15T02:09:33.402Z,73.20
2023-05-15T02:12:03.673Z,73.10
2023-05-15T02:14:32.062Z,73.20
2023-05-15T02:16:59.357Z,73.60
2023-05-15T02:19:27.806Z,73.90
2023-05-15T02:21:55.035Z,74.00
2023-05-15T02:24:22.266Z,74.10
2023-05-15T02:27:02.374Z,74.10
2023-05-15T02:29:48.559Z,74.20
2023-05-15T02:32:34.744Z,74.80
2023-05-15T02:35:26.816Z,74.00
2023-05-15T02:37:56.605Z,73.90
2023-05-15T02:40:28.483Z,73.70
2023-05-15T02:42:57.687Z,73.70
2023-05-15T02:45:26.528Z,73.70
2023-05-15T02:47:54.407Z,73.70
2023-05-15T02:50:22.333Z,73.70
2023-05-15T02:52:49.819Z,73.80
2023-05-15T02:55:17.324Z,73.70
2023-05-15T02:57:44.561Z,73.90
2023-05-15T03:00:12.488Z,74.00
2023-05-15T03:02:39.731Z,74.10
2023-05-15T03:05:07.300Z,74.10
2023-05-15T03:07:34.632Z,74.20
2023-05-15T03:10:01.817Z,74.20
2023-05-15T03:12:29.098Z,74.80
2023-05-15T03:14:56.457Z,73.90
2023-05-15T03:17:23.703Z,74.00
2023-05-15T03:19:51.113Z,73.80
2023-05-15T03:22:18.382Z,73.80
2023-05-15T03:24:45.809Z,73.70
2023-05-15T03:27:13.248Z,73.80
2023-05-15T03:29:40.539Z,73.80
2023-05-15T03:32:07.869Z,73.60
2023-05-15T03:34:35.480Z,73.60
2023-05-15T03:37:02.688Z,73.50
2023-05-15T03:39:30.020Z,73.50
2023-05-15T03:41:57.229Z,73.70
2023-05-15T03:44:24.641Z,74.70
2023-05-15T03:46:52.024Z,73.90
2023-05-15T03:49:19.237Z,73.90
2023-05-15T03:51:46.729Z,73.90
2023-05-15T03:54:14.422Z,74.00
2023-05-15T03:56:41.624Z,74.20
2023-05-15T03:59:09.194Z,74.30
2023-05-15T04:01:46.631Z,74.40
2023-05-15T04:04:22.892Z,74.30
2023-05-15T04:06:51.183Z,74.30
2023-05-15T04:09:18.439Z,74.20
2023-05-15T04:11:46.672Z,74.40
2023-05-15T04:14:13.986Z,74.30
2023-05-15T04:16:41.261Z,74.30
2023-05-15T04:19:08.701Z,74.20
2023-05-15T04:21:36.180Z,74.40
2023-05-15T04:24:03.480Z,74.50
2023-05-15T04:26:31.452Z,74.90
2023-05-15T04:29:04.021Z,74.80
2023-05-15T04:31:32.641Z,74.90
2023-05-15T04:34:00.617Z,75.20
2023-05-15T04:36:28.141Z,75.40
2023-05-15T04:38:55.414Z,75.70
2023-05-15T04:41:22.809Z,76.00
2023-05-15T04:43:50.782Z,76.40
2023-05-15T04:46:18.278Z,76.30
2023-05-15T04:48:46.054Z,75.60
2023-05-15T04:51:13.417Z,74.50
2023-05-15T04:53:41.056Z,73.30
2023-05-15T04:56:08.531Z,73.10
2023-05-15T04:58:35.923Z,73.30
2023-05-15T05:01:04.347Z,73.20
2023-05-15T05:03:31.961Z,73.00
2023-05-15T05:06:00.136Z,72.40
2023-05-15T05:08:27.437Z,71.40
2023-05-15T05:10:58.076Z,70.60
2023-05-15T05:13:25.502Z,69.90
2023-05-15T05:15:52.917Z,70.00
2023-05-15T05:18:20.434Z,70.00
2023-05-15T05:20:47.870Z,70.40
2023-05-15T05:23:15.257Z,69.80
2023-05-15T05:25:42.700Z,69.20
2023-05-15T05:28:10.246Z,68.20
2023-05-15T05:30:37.623Z,66.70
2023-05-15T05:33:05.058Z,64.30
2023-05-15T05:35:32.671Z,63.20
2023-05-15T05:38:01.024Z,61.60
2023-05-15T05:40:28.471Z,59.70
2023-05-15T05:43:00.263Z,58.00
2023-05-15T05:45:28.413Z,56.70
2023-05-15T05:47:56.543Z,56.00
2023-05-15T05:50:24.877Z,55.30
2023-05-15T05:52:52.286Z,54.40
2023-05-15T05:55:19.809Z,54.10
2023-05-15T05:57:47.595Z,52.60
2023-05-15T06:00:15.805Z,50.90
2023-05-15T06:02:43.683Z,50.70
2023-05-15T06:05:11.169Z,50.20
2023-05-15T06:07:38.821Z,49.90
2023-05-15T06:10:09.370Z,48.90
2023-05-15T06:12:36.768Z,48.30
2023-05-15T06:15:05.030Z,47.90
2023-05-15T06:17:32.465Z,46.20
2023-05-15T06:19:59.878Z,46.70
2023-05-15T06:22:27.593Z,45.90
2023-05-15T06:24:55.042Z,45.90
2023-05-15T06:27:26.374Z,44.40
2023-05-15T06:29:53.714Z,43.90
2023-05-15T06:32:21.403Z,44.10
2023-05-15T06:34:48.812Z,44.10
2023-05-15T06:37:16.321Z,43.30
2023-05-15T06:39:43.776Z,42.20
2023-05-15T06:42:11.489Z,41.10
2023-05-15T06:44:41.721Z,41.80
2023-05-15T06:47:09.240Z,41.10
2023-05-15T06:49:36.746Z,40.80
2023-05-15T06:52:04.492Z,40.70
2023-05-15T06:54:31.903Z,40.40
2023-05-15T06:56:59.886Z,39.00
2023-05-15T06:59:27.416Z,38.60
2023-05-15T07:01:56.159Z,38.60
2023-05-15T07:04:23.724Z,38.40
2023-05-15T07:06:51.109Z,37.10
2023-05-15T07:09:18.543Z,37.20
2023-05-15T07:11:45.904Z,37.70
2023-05-15T07:14:13.127Z,37.30
2023-05-15T07:16:40.698Z,37.50
2023-05-15T07:19:09.291Z,36.20
2023-05-15T07:21:39.329Z,35.70
2023-05-15T07:24:06.762Z,36.20
2023-05-15T07:26:43.569Z,36.30
2023-05-15T07:29:17.737Z,36.80
2023-05-15T07:31:45.027Z,35.90
2023-05-15T07:34:12.658Z,36.30
2023-05-15T07:36:40.134Z,35.70
2023-05-15T07:39:07.567Z,35.50
2023-05-15T07:41:35.035Z,35.20
2023-05-15T07:44:02.421Z,35.30
2023-05-15T07:46:29.810Z,34.80
2023-05-15T07:48:57.257Z,34.70
2023-05-15T07:51:24.953Z,34.80
2023-05-15T07:53:52.596Z,33.80
2023-05-15T07:56:20.276Z,33.50
2023-05-15T07:58:47.657Z,32.50
2023-05-15T08:01:15.075Z,32.20
2023-05-15T08:03:42.589Z,32.60
2023-05-15T08:06:10.170Z,32.40
2023-05-15T08:08:37.834Z,32.40
2023-05-15T08:11:05.543Z,33.00
2023-05-15T08:13:32.921Z,33.00
2023-05-15T08:16:00.377Z,33.00
2023-05-15T08:18:27.818Z,31.90
2023-05-15T08:20:55.190Z,32.60
2023-05-15T08:23:22.631Z,33.10
2023-05-15T08:25:50.831Z,32.50
2023-05-15T08:28:18.316Z,32.70
2023-05-15T08:30:45.868Z,32.50
2023-05-15T08:33:13.433Z,33.10
2023-05-15T08:35:40.965Z,33.20
2023-05-15T08:38:08.357Z,33.50
2023-05-15T08:40:39.691Z,31.80
2023-05-15T08:43:17.871Z,32.00
2023-05-15T08:45:45.471Z,31.70
2023-05-15T08:48:25.981Z,31.50
2023-05-15T08:50:55.609Z,30.00
2023-05-15T08:53:23.575Z,30.80
2023-05-15T08:55:51.776Z,30.30
2023-05-15T08:58:22.468Z,29.20
2023-05-15T09:00:50.234Z,29.10
2023-05-15T09:03:19.975Z,29.50
2023-05-15T09:05:49.324Z,28.50
2023-05-15T09:08:18.054Z,28.00
2023-05-15T09:10:45.886Z,28.40
2023-05-15T09:13:14.528Z,28.80
2023-05-15T09:15:42.642Z,29.20
2023-05-15T09:18:10.357Z,29.00
2023-05-15T09:20:38.514Z,28.40
2023-05-15T09:23:21.538Z,28.10
2023-05-15T09:25:53.232Z,28.30
2023-05-15T09:28:32.142Z,29.00
2023-05-15T09:31:01.896Z,27.90
2023-05-15T09:33:37.410Z,27.20
2023-05-15T09:36:09.615Z,27.40
2023-05-15T09:38:43.520Z,27.60
2023-05-15T09:41:11.455Z,27.40
2023-05-15T09:43:40.540Z,27.90
2023-05-15T09:46:08.780Z,27.00
2023-05-15T09:48:36.462Z,27.70
2023-05-15T09:51:07.431Z,27.90
2023-05-15T09:53:35.682Z,27.60
2023-05-15T09:56:03.419Z,28.00
2023-05-15T09:58:31.437Z,28.10
2023-05-15T10:01:00.766Z,28.00
2023-05-15T10:03:28.198Z,28.30
2023-05-15T10:06:03.513Z,28.50
2023-05-15T10:08:31.062Z,28.70
2023-05-15T10:11:01.301Z,28.80
2023-05-15T10:13:31.935Z,29.10
2023-05-15T10:16:02.042Z,29.60
2023-05-15T10:18:31.983Z,30.30
2023-05-15T10:21:03.998Z,30.40
2023-05-15T10:23:35.160Z,30.60
2023-05-15T10:26:08.662Z,30.80
2023-05-15T10:28:37.303Z,30.90
2023-05-15T10:31:05.800Z,31.30
2023-05-15T10:33:35.232Z,32.20
2023-05-15T10:36:04.516Z,32.00
2023-05-15T10:38:32.982Z,32.00
2023-05-15T10:41:15.749Z,32.70
2023-05-15T10:43:44.457Z,33.40
2023-05-15T10:46:12.059Z,34.20
2023-05-15T10:48:40.420Z,35.00
2023-05-15T10:51:18.627Z,37.60
2023-05-15T10:53:46.576Z,40.30
2023-05-15T10:56:17.111Z,42.00
2023-05-15T10:58:52.001Z,41.40
2023-05-15T11:01:32.134Z,43.00
2023-05-15T11:04:18.384Z,43.70
2023-05-15T11:06:48.092Z,43.50
2023-05-15T11:09:25.855Z,44.60
2023-05-15T11:12:00.203Z,45.50
2023-05-15T11:14:29.626Z,45.70
2023-05-15T11:17:03.665Z,46.50
2023-05-15T11:19:35.855Z,47.80
2023-05-15T11:22:28.184Z,48.50
2023-05-15T11:25:14.279Z,48.20
2023-05-15T11:27:46.321Z,48.60
2023-05-15T11:30:17.942Z,47.50
2023-05-15T11:32:53.980Z,48.60
2023-05-15T11:35:32.572Z,48.20
2023-05-15T11:38:01.993Z,48.40
2023-05-15T11:40:31.612Z,48.60
2023-05-15T11:42:59.050Z,47.60
2023-05-15T11:45:28.040Z,48.00
2023-05-15T11:47:55.890Z,48.70
2023-05-15T11:50:23.838Z,47.90
2023-05-15T11:52:52.066Z,47.50
2023-05-15T11:55:20.271Z,48.10
2023-05-15T11:57:47.944Z,48.10
2023-05-15T12:00:15.760Z,48.00
2023-05-15T12:02:43.238Z,46.90
2023-05-15T12:05:11.984Z,46.60
2023-05-15T12:07:42.069Z,46.20
2023-05-15T12:10:11.271Z,46.90
2023-05-15T12:12:46.300Z,45.80
2023-05-15T12:15:15.553Z,46.10
2023-05-15T12:17:45.302Z,45.20
2023-05-15T12:20:16.815Z,44.40
2023-05-15T12:22:45.115Z,43.00
2023-05-15T12:25:14.633Z,42.80
2023-05-15T12:27:42.528Z,42.30
2023-05-15T12:30:11.259Z,42.30
2023-05-15T12:32:39.599Z,43.00
2023-05-15T12:35:07.540Z,42.70
2023-05-15T12:37:36.343Z,42.40
2023-05-15T12:40:10.215Z,42.20
2023-05-15T12:42:45.513Z,42.10
2023-05-15T12:45:15.258Z,42.00
2023-05-15T12:47:44.170Z,42.60
2023-05-15T12:50:13.662Z,42.50
2023-05-15T12:52:41.325Z,42.20
2023-05-15T12:55:14.903Z,40.90
2023-05-15T12:57:42.723Z,41.40
2023-05-15T13:00:14.980Z,42.10
2023-05-15T13:02:44.977Z,41.90
2023-05-15T13:05:13.446Z,41.90
2023-05-15T13:07:44.683Z,42.60
2023-05-15T13:10:12.706Z,42.60
2023-05-15T13:12:45.212Z,40.70
2023-05-15T13:15:31.315Z,40.10
2023-05-15T13:18:19.136Z,40.70
2023-05-15T13:20:48.623Z,40.80
2023-05-15T13:23:18.554Z,41.10
2023-05-15T13:25:46.516Z,40.30
2023-05-15T13:28:14.282Z,40.70
2023-05-15T13:30:42.521Z,41.20
2023-05-15T13:33:11.842Z,41.20
2023-05-15T13:35:40.290Z,40.50
2023-05-15T13:38:11.218Z,39.90
2023-05-15T13:40:39.622Z,39.80
2023-05-15T13:43:07.072Z,40.20
2023-05-15T13:45:34.752Z,39.00
2023-05-15T13:48:02.197Z,39.20
2023-05-15T13:50:29.813Z,39.60
2023-05-15T13:52:57.270Z,39.50
2023-05-15T13:55:26.113Z,39.50
2023-05-15T13:57:53.587Z,39.10
2023-05-15T14:00:21.392Z,39.00
2023-05-15T14:02:48.866Z,39.20
2023-05-15T14:05:17.004Z,39.20
2023-05-15T14:07:44.862Z,39.20
2023-05-15T14:10:12.418Z,39.50
2023-05-15T14:12:41.810Z,39.60
2023-05-15T14:15:11.604Z,39.70
2023-05-15T14:17:40.124Z,39.60
2023-05-15T14:20:10.017Z,39.50
2023-05-15T14:22:38.370Z,38.50
2023-05-15T14:25:06.701Z,39.00
2023-05-15T14:27:34.165Z,39.00
2023-05-15T14:30:01.722Z,39.10
2023-05-15T14:32:29.191Z,39.20
2023-05-15T14:34:59.693Z,39.40
2023-05-15T14:37:28.323Z,39.10
2023-05-15T14:39:55.785Z,39.10
2023-05-15T14:42:23.152Z,38.90
2023-05-15T14:44:50.751Z,39.30
2023-05-15T14:47:18.817Z,39.40
2023-05-15T14:49:46.187Z,39.30
2023-05-15T14:52:13.559Z,38.80
2023-05-15T14:54:40.800Z,39.00
2023-05-15T14:57:08.095Z,39.20
2023-05-15T14:59:35.918Z,39.30
2023-05-15T15:02:03.490Z,39.30
2023-05-15T15:04:34.202Z,39.10
2023-05-15T15:07:05.061Z,39.00
2023-05-15T15:09:32.482Z,39.60
2023-05-15T15:11:59.932Z,38.70
2023-05-15T15:14:27.371Z,39.30
2023-05-15T15:16:54.766Z,38.80
2023-05-15T15:19:22.323Z,39.70
2023-05-15T15:21:49.815Z,39.70
2023-05-15T15:24:17.269Z,38.70
2023-05-15T15:26:44.672Z,39.10
2023-05-15T15:29:12.278Z,39.30
2023-05-15T15:31:39.977Z,39.10
2023-05-15T15:34:09.019Z,38.30
2023-05-15T15:36:41.393Z,38.60
2023-05-15T15:39:11.430Z,39.30
2023-05-15T15:41:38.917Z,39.20
2023-05-15T15:44:06.589Z,39.30
2023-05-15T15:46:33.936Z,39.10
2023-05-15T15:49:01.250Z,39.10
2023-05-15T15:51:28.568Z,39.50
2023-05-15T15:53:55.959Z,39.20
2023-05-15T15:56:23.470Z,39.20
2023-05-15T15:58:50.818Z,38.90
2023-05-15T16:01:19.108Z,39.80
2023-05-15T16:03:46.650Z,39.80
2023-05-15T16:06:14.160Z,39.80
2023-05-15T16:08:41.518Z,40.00
2023-05-15T16:11:08.930Z,40.30
2023-05-15T16:13:36.173Z,39.80
2023-05-15T16:16:03.450Z,39.50
2023-05-15T16:18:31.014Z,40.00
2023-05-15T16:20:58.487Z,39.80
2023-05-15T16:23:26.121Z,39.60
2023-05-15T16:25:53.408Z,39.30
2023-05-15T16:28:21.188Z,39.40
2023-05-15T16:30:50.877Z,39.20
2023-05-15T16:33:19.125Z,39.30
2023-05-15T16:35:47.287Z,39.40
2023-05-15T16:38:15.585Z,39.30
2023-05-15T16:40:42.894Z,39.00
2023-05-15T16:43:10.385Z,38.90
2023-05-15T16:45:37.823Z,39.10
2023-05-15T16:48:05.616Z,39.20
2023-05-15T16:50:35.776Z,39.50
2023-05-15T16:53:04.703Z,39.50
2023-05-15T16:55:32.217Z,39.60
2023-05-15T16:57:59.713Z,39.50
2023-05-15T17:00:27.341Z,39.80
2023-05-15T17:02:55.214Z,39.60
2023-05-15T17:05:22.543Z,39.70
2023-05-15T17:07:49.742Z,39.80
2023-05-15T17:10:17.232Z,39.60
2023-05-15T17:12:44.961Z,39.50
2023-05-15T17:15:13.124Z,39.70
2023-05-15T17:17:40.466Z,39.70
2023-05-15T17:20:08.309Z,40.00
2023-05-15T17:22:35.855Z,40.00
2023-05-15T17:25:04.293Z,40.20
2023-05-15T17:27:32.361Z,40.50
2023-05-15T17:29:59.771Z,40.90
2023-05-15T17:32:27.338Z,40.80
2023-05-15T17:34:55.079Z,40.80
2023-05-15T17:37:22.489Z,41.00
2023-05-15T17:39:51.047Z,41.20
2023-05-15T17:42:18.525Z,40.80
2023-05-15T17:44:45.970Z,40.90
2023-05-15T17:47:13.427Z,41.30
2023-05-15T17:49:40.763Z,41.30
2023-05-15T17:52:08.791Z,41.70
2023-05-15T17:54:36.145Z,41.50
2023-05-15T17:57:03.806Z,41.70
2023-05-15T17:59:31.281Z,41.80
2023-05-15T18:01:58.811Z,41.80
2023-05-15T18:04:26.364Z,41.90
2023-05-15T18:06:53.751Z,42.20
2023-05-15T18:09:23.875Z,42.40
2023-05-15T18:11:51.730Z,42.80
2023-05-15T18:14:18.941Z,43.00
2023-05-15T18:16:46.226Z,43.00
2023-05-15T18:19:13.676Z,43.10
2023-05-15T18:21:41.137Z,43.20
2023-05-15T18:24:08.421Z,43.30
2023-05-15T18:26:35.659Z,43.60
2023-05-15T18:29:03.222Z,43.90
2023-05-15T18:31:30.683Z,44.30
2023-05-15T18:33:58.197Z,44.80
2023-05-15T18:36:25.867Z,45.00
2023-05-15T18:38:53.301Z,45.10
2023-05-15T18:41:21.312Z,45.30
2023-05-15T18:43:48.696Z,45.20
2023-05-15T18:46:16.876Z,45.40
2023-05-15T18:48:44.637Z,45.50
2023-05-15T18:51:12.674Z,45.70
2023-05-15T18:53:40.114Z,46.00
2023-05-15T18:56:07.500Z,46.10
2023-05-15T18:58:35.256Z,46.30
2023-05-15T19:01:02.853Z,46.40
2023-05-15T19:03:30.285Z,46.50
2023-05-15T19:05:58.094Z,46.50
2023-05-15T19:08:25.336Z,47.20
2023-05-15T19:10:52.789Z,47.70
2023-05-15T19:13:20.075Z,47.50
2023-05-15T19:15:51.737Z,47.70
2023-05-15T19:18:19.644Z,48.20
2023-05-15T19:20:50.304Z,48.20
2023-05-15T19:23:18.670Z,48.40
2023-05-15T19:25:45.960Z,48.20
2023-05-15T19:28:14.743Z,48.50
2023-05-15T19:30:42.526Z,48.50
2023-05-15T19:33:09.974Z,48.60
2023-05-15T19:35:37.813Z,48.70
2023-05-15T19:38:05.214Z,48.60
2023-05-15T19:40:32.598Z,48.60
2023-05-15T19:42:59.799Z,48.80
2023-05-15T19:45:29.297Z,49.10
2023-05-15T19:47:56.867Z,49.10
2023-05-15T19:50:24.287Z,49.10
2023-05-15T19:52:51.655Z,49.50
2023-05-15T19:55:18.873Z,49.70
2023-05-15T19:57:47.513Z,49.80
2023-05-15T20:00:15.013Z,50.30
2023-05-15T20:02:42.592Z,50.40
2023-05-15T20:05:10.126Z,50.30
2023-05-15T20:07:38.264Z,50.80
2023-05-15T20:10:06.398Z,50.80
2023-05-15T20:12:33.649Z,51.50
2023-05-15T20:15:01.078Z,51.80
2023-05-15T20:17:28.501Z,52.10
2023-05-15T20:19:58.953Z,51.90
2023-05-15T20:22:26.384Z,51.90
2023-05-15T20:24:53.575Z,52.00
2023-05-15T20:27:21.243Z,51.90
2023-05-15T20:29:48.802Z,51.90
2023-05-15T20:32:16.423Z,52.90
2023-05-15T20:34:46.591Z,52.40
2023-05-15T20:37:14.027Z,52.50
2023-05-15T20:39:41.360Z,52.70
2023-05-15T20:42:08.861Z,52.80
2023-05-15T20:44:39.000Z,53.00
2023-05-15T20:47:06.572Z,53.30
2023-05-15T20:49:33.853Z,53.10
2023-05-15T20:52:01.258Z,53.40
2023-05-15T20:54:29.042Z,53.30
2023-05-15T20:56:56.420Z,53.30
2023-05-15T20:59:23.722Z,53.40
2023-05-15T21:01:51.060Z,53.50
2023-05-15T21:04:18.625Z,54.00
2023-05-15T21:06:45.961Z,54.20
2023-05-15T21:09:16.765Z,54.30
2023-05-15T21:11:45.576Z,55.00
2023-05-15T21:14:13.122Z,55.90
2023-05-15T21:16:40.760Z,55.60
2023-05-15T21:19:08.245Z,55.80
2023-05-15T21:21:35.531Z,55.80
2023-05-15T21:24:03.666Z,56.00
2023-05-15T21:26:31.433Z,55.90
2023-05-15T21:28:59.348Z,56.00
2023-05-15T21:31:27.392Z,56.20
2023-05-15T21:33:55.279Z,56.40
2023-05-15T21:36:22.852Z,56.50
2023-05-15T21:38:50.269Z,56.60
2023-05-15T21:41:17.636Z,56.80
2023-05-15T21:43:45.074Z,57.00
2023-05-15T21:46:12.857Z,57.10
2023-05-15T21:48:40.302Z,57.20
2023-05-15T21:51:07.837Z,57.40
2023-05-15T21:53:35.457Z,57.50
2023-05-15T21:56:03.525Z,57.60
2023-05-15T21:58:31.880Z,57.90
2023-05-15T22:00:59.055Z,58.10
2023-05-15T22:03:26.720Z,58.10
2023-05-15T22:05:54.164Z,58.10
2023-05-15T22:08:21.797Z,58.40
2023-05-15T22:10:49.567Z,58.40
2023-05-15T22:13:19.711Z,58.60
2023-05-15T22:15:46.946Z,58.90
2023-05-15T22:18:14.622Z,58.90
2023-05-15T22:20:44.285Z,59.00
2023-05-15T22:23:11.601Z,59.30
2023-05-15T22:25:39.096Z,59.40
2023-05-15T22:28:06.432Z,59.60
2023-05-15T22:30:33.803Z,59.80
2023-05-15T22:33:01.082Z,59.70
2023-05-15T22:35:29.273Z,59.70
2023-05-15T22:37:57.024Z,59.70
2023-05-15T22:40:25.378Z,59.90
2023-05-15T22:42:52.761Z,60.10
2023-05-15T22:45:20.296Z,60.70
2023-05-15T22:47:49.095Z,60.90
2023-05-15T22:50:16.660Z,61.10
2023-05-15T22:52:44.335Z,61.00
2023-05-15T22:55:12.808Z,61.10
2023-05-15T22:57:40.397Z,60.90
2023-05-15T23:00:09.637Z,60.80
2023-05-15T23:02:38.283Z,60.70
2023-05-15T23:05:06.382Z,60.80
2023-05-15T23:07:33.749Z,60.90
2023-05-15T23:10:01.049Z,60.90
2023-05-15T23:12:28.641Z,61.10
2023-05-15T23:14:55.948Z,61.20
2023-05-15T23:17:24.568Z,61.20
2023-05-15T23:19:53.558Z,61.30
2023-05-15T23:22:20.846Z,61.20
2023-05-15T23:24:48.581Z,61.30
2023-05-15T23:27:15.869Z,61.40
2023-05-15T23:29:43.109Z,62.30
2023-05-15T23:32:10.433Z,62.40
2023-05-15T23:34:37.752Z,62.60
2023-05-15T23:37:05.338Z,62.50
2023-05-15T23:39:32.649Z,62.50
2023-05-15T23:42:00.097Z,62.70
2023-05-15T23:44:27.367Z,62.70
2023-05-15T23:46:54.758Z,62.80
2023-05-15T23:49:22.056Z,63.00
2023-05-15T23:51:49.489Z,63.10
2023-05-15T23:54:16.842Z,63.20
2023-05-15T23:56:44.290Z,63.50
2023-05-15T23:59:11.697Z,63.90
